»·PEaware :: N34PW KLAX-KSNA

N34PW :: KLAX-KSNA

FLIGHT INFORMATION

Flight Status: Arrived
Operator: Privately registered:
United States
More flights under this callsign
Pilot: Bashar D. (27147)
Aircraft: BEECH AIRCRAFT BONANZA
(BE36)
More flights by this aircraft type
Origin: KLAX Los Angeles Intl
United States
Destination: KSNA John Wayne-Orange Co
United States
More flights between these airports :: More routes between these airports
Route: +SLI8
File this flight plan on PilotEdge
Remarks: Irate 6
Altitude:
(Current/Filed)
4,000ft
Speed:
(Current/Filed)
120kts
Departed: 04-Feb-20 09:55 PM
Arrived: 04-Feb-20 10:58 PM
Distance/Time
Traveled:
31nm/1:02
Distance/Time
To Go:
Arrived

Flight Plot

Page will automatically refresh every two minutes.


Map Options




Map Legend


Flown Route
Filed Route
Departure Airport
Arrival Airport
Navaid (VOR, NDB)
Fix

Horizontal Profiles

Position Reports

Time Latitude Longitude Heading Altitude Ground
Speed
04-Feb-20 21:33 33.935433 -118.380289 79 95ft 0kts
04-Feb-20 21:34 33.935433 -118.380289 79 95ft 0kts
04-Feb-20 21:35 33.935433 -118.380289 79 95ft 0kts
04-Feb-20 21:36 33.935434 -118.380289 79 95ft 0kts
04-Feb-20 21:37 33.935433 -118.380289 79 95ft 0kts
04-Feb-20 21:38 33.935433 -118.380289 79 95ft 0kts
04-Feb-20 21:39 33.935433 -118.380289 79 95ft 0kts
04-Feb-20 21:40 33.935433 -118.380289 79 95ft 0kts
04-Feb-20 21:41 33.935433 -118.380289 79 95ft 0kts
04-Feb-20 21:41 33.935433 -118.380289 79 95ft 0kts
04-Feb-20 21:43 33.935433 -118.380289 79 95ft 0kts
04-Feb-20 21:44 33.935434 -118.380289 79 95ft 0kts
04-Feb-20 21:44 33.935433 -118.380289 79 95ft 0kts
04-Feb-20 21:45 33.935433 -118.380289 79 95ft 0kts
04-Feb-20 21:47 33.935433 -118.380289 79 95ft 0kts
04-Feb-20 21:47 33.935433 -118.380289 79 95ft 0kts
04-Feb-20 21:48 33.935433 -118.380289 79 95ft 0kts
04-Feb-20 21:50 33.935434 -118.380283 78 95ft 3kts
04-Feb-20 21:50 33.935740 -118.380894 253 95ft 8kts
04-Feb-20 21:51 33.936157 -118.382322 259 95ft 16kts
04-Feb-20 21:52 33.936293 -118.382787 345 95ft 0kts
04-Feb-20 21:53 33.937235 -118.384021 256 97ft 31kts
04-Feb-20 21:54 33.936203 -118.394968 261 308ft 91kts
04-Feb-20 21:55 33.934499 -118.417641 263 1148ft 90kts
04-Feb-20 21:56 33.933303 -118.432643 264 1091ft 137kts
04-Feb-20 21:57 33.931849 -118.454668 264 1250ft 159kts
04-Feb-20 21:58 33.930152 -118.477486 264 1554ft 162kts
04-Feb-20 21:59 33.924922 -118.498934 222 1830ft 162kts
04-Feb-20 22:00 33.907053 -118.505451 178 2117ft 161kts
04-Feb-20 22:01 33.893934 -118.493425 110 2369ft 162kts
04-Feb-20 22:02 33.890310 -118.474217 103 2635ft 161kts
04-Feb-20 22:03 33.886464 -118.454780 105 2799ft 162kts
04-Feb-20 22:04 33.882097 -118.435451 105 2811ft 164kts
04-Feb-20 22:05 33.879292 -118.423871 108 2812ft 165kts
04-Feb-20 22:06 33.874475 -118.405619 108 2868ft 143kts
04-Feb-20 22:07 33.870542 -118.390528 108 2810ft 136kts
04-Feb-20 22:08 33.865978 -118.372859 108 2808ft 131kts
04-Feb-20 22:09 33.861712 -118.356284 108 2999ft 118kts
04-Feb-20 22:10 33.857840 -118.341081 108 3276ft 109kts
04-Feb-20 22:11 33.854057 -118.326401 108 3569ft 105kts
04-Feb-20 22:12 33.850299 -118.311895 109 3802ft 108kts
04-Feb-20 22:13 33.846056 -118.295905 109 3818ft 122kts
04-Feb-20 22:14 33.841447 -118.278553 109 3813ft 127kts
04-Feb-20 22:15 33.836738 -118.260577 108 3811ft 129kts
04-Feb-20 22:16 33.832007 -118.242420 108 3810ft 129kts
04-Feb-20 22:17 33.827330 -118.224483 108 3810ft 129kts
04-Feb-20 22:18 33.822654 -118.206578 108 3810ft 129kts
04-Feb-20 22:19 33.817972 -118.188676 108 3810ft 129kts
04-Feb-20 22:20 33.813269 -118.171050 109 3810ft 129kts
04-Feb-20 22:21 33.805998 -118.143955 108 3810ft 129kts
04-Feb-20 22:22 33.797567 -118.111523 108 3810ft 129kts
04-Feb-20 22:23 33.789319 -118.079632 108 3810ft 129kts
04-Feb-20 22:24 33.785942 -118.046790 64 3808ft 131kts
04-Feb-20 22:25 33.798050 -118.016903 65 3810ft 131kts
04-Feb-20 22:26 33.810248 -117.986506 65 3810ft 131kts
04-Feb-20 22:27 33.822348 -117.956449 65 3810ft 131kts
04-Feb-20 22:28 33.834914 -117.925146 65 3810ft 131kts
04-Feb-20 22:29 33.847335 -117.894202 65 3810ft 131kts
04-Feb-20 22:30 33.858993 -117.865140 65 3810ft 131kts
04-Feb-20 22:31 33.870351 -117.836798 65 3810ft 131kts
04-Feb-20 22:32 33.881770 -117.808284 65 3810ft 131kts
04-Feb-20 22:33 33.892691 -117.780989 65 3810ft 131kts
04-Feb-20 22:34 33.903168 -117.754783 65 3810ft 131kts
04-Feb-20 22:35 33.913361 -117.729265 65 3810ft 131kts
04-Feb-20 22:36 33.928330 -117.707608 26 3811ft 133kts
04-Feb-20 22:37 33.950256 -117.693434 29 3810ft 133kts
04-Feb-20 22:38 33.970912 -117.701688 282 3802ft 132kts
04-Feb-20 22:39 33.955065 -117.718801 164 3807ft 127kts
04-Feb-20 22:40 33.931302 -117.710346 169 3808ft 128kts
04-Feb-20 22:41 33.914479 -117.726257 268 3805ft 131kts
04-Feb-20 22:42 33.931357 -117.738130 26 3810ft 132kts
04-Feb-20 22:43 33.952930 -117.723981 29 3811ft 133kts
04-Feb-20 22:44 33.968017 -117.703704 98 3806ft 129kts
04-Feb-20 22:45 33.949109 -117.694075 200 3812ft 128kts
04-Feb-20 22:46 33.927524 -117.708531 209 3810ft 129kts
04-Feb-20 22:47 33.905858 -117.723069 207 3810ft 129kts
04-Feb-20 22:48 33.882380 -117.737181 206 3810ft 129kts
04-Feb-20 22:49 33.857941 -117.753612 208 3466ft 143kts
04-Feb-20 22:50 33.831582 -117.770612 206 3207ft 134kts
04-Feb-20 22:51 33.803733 -117.788106 205 3061ft 146kts
04-Feb-20 22:52 33.771563 -117.807993 207 2849ft 145kts
04-Feb-20 22:53 33.739405 -117.825090 209 2522ft 129kts
04-Feb-20 22:54 33.722617 -117.838328 191 1787ft 67kts
04-Feb-20 22:55 33.704214 -117.850758 207 517ft 72kts
04-Feb-20 22:56 33.687316 -117.861527 206 227ft 95kts
04-Feb-20 22:57 33.675909 -117.869640 291 60ft 15kts
04-Feb-20 22:58 33.677501 -117.869201 19 60ft 26kts
04-Feb-20 22:59 33.677758 -117.870286 145 60ft 0kts

Navigation Log

Ident Type
Flight plan parsing failed, navigation log unavailable